首页
METAR-TAF:

METAR-TAF

机场 :

柏林, 德国

柏林-泰格尔奥托·利林塔尔机场

纬度: 52-34N, 经度: 013-19E, 海拔: 37米

当前天气观测

该预报发布于25分钟前的01:20 UTC
风速8节,风向西转西北,在西转西南西北之间变化
温度 2°C
湿度 87%
气压 1000 hPa
能见度10公里或以上
多云层高于900英尺

METAR: EDDT 190120Z 29008KT 250V320 9999 BKN009 02/00 Q1000

时间: 02:45 (01:45 UTC)

预报

该预报发布于2小时和45分钟前的23:00 UTC
预报有效从19日的 00点(UTC)到 19日的 24点(UTC)
风速10节,风向西
能见度10公里或以上
多云层高于1300英尺
几率 40% :
短暂存在
从 19日的 02点(UTC)到 19日的 07点(UTC)
多云层高于400英尺
成为
从 19日的 07点(UTC)到 19日的 09点(UTC)
风速8节,风向西南
短暂存在
从 19日的 09点(UTC)到 19日的 18点(UTC)
多云层高于1500英尺
短暂存在
从 19日的 18点(UTC)到 19日的 24点(UTC)
能見度: 3500
多云层高于900英尺
小雨, 雪

TAF: EDDT 182300Z 1900/1924 28010KT 9999 BKN013 PROB40 TEMPO 1902/1907 BKN004 BECMG 1907/1909 22008KT TEMPO 1909/1918 BKN015 TEMPO 1918/1924 3500 -RASN BKN009

超过4000个机场的气象观测和天气预报(METAR&TAF报告)。

可查询的气象台以黄色和红色小点在地图上表示。

将鼠标移到小点上方,可查看气象台名称。

然后点击查看天气观测和预报。

如需切换地图:点击带黑十字的绿色按钮放大地图;点击带横线的绿色按钮缩小地图;或者点击绿色箭头查看邻近地区的地图。


METAR-TAF: